sensor_id;sensor_type;location;lat;lon;timestamp;P1;durP1;ratioP1;P2;durP2;ratioP2
28304;SDS011;15569;42.652;23.040;2022-11-18T00:00:30;25.02;;;14.48;;
28304;SDS011;15569;42.652;23.040;2022-11-18T00:02:55;29.33;;;13.95;;
28304;SDS011;15569;42.652;23.040;2022-11-18T00:05:21;32.45;;;14.07;;
28304;SDS011;15569;42.652;23.040;2022-11-18T00:07:46;45.20;;;15.18;;
28304;SDS011;15569;42.652;23.040;2022-11-18T00:10:12;38.03;;;15.57;;
28304;SDS011;15569;42.652;23.040;2022-11-18T00:12:37;32.80;;;14.40;;
28304;SDS011;15569;42.652;23.040;2022-11-18T00:15:21;33.17;;;14.15;;
28304;SDS011;15569;42.652;23.040;2022-11-18T00:17:46;38.17;;;12.35;;
28304;SDS011;15569;42.652;23.040;2022-11-18T00:20:12;36.10;;;12.88;;
28304;SDS011;15569;42.652;23.040;2022-11-18T00:22:37;30.08;;;11.85;;
28304;SDS011;15569;42.652;23.040;2022-11-18T00:25:03;18.88;;;9.63;;
28304;SDS011;15569;42.652;23.040;2022-11-18T00:27:29;15.82;;;8.93;;
28304;SDS011;15569;42.652;23.040;2022-11-18T00:29:57;26.02;;;9.40;;
28304;SDS011;15569;42.652;23.040;2022-11-18T00:32:23;20.58;;;9.68;;
28304;SDS011;15569;42.652;23.040;2022-11-18T00:34:48;26.98;;;11.38;;
28304;SDS011;15569;42.652;23.040;2022-11-18T00:37:13;33.05;;;12.95;;
28304;SDS011;15569;42.652;23.040;2022-11-18T00:39:39;30.48;;;11.25;;
28304;SDS011;15569;42.652;23.040;2022-11-18T00:42:06;29.98;;;14.05;;
28304;SDS011;15569;42.652;23.040;2022-11-18T00:44:50;29.40;;;11.30;;
28304;SDS011;15569;42.652;23.040;2022-11-18T00:47:15;30.30;;;9.98;;
28304;SDS011;15569;42.652;23.040;2022-11-18T00:49:41;16.98;;;7.82;;
28304;SDS011;15569;42.652;23.040;2022-11-18T00:52:06;21.40;;;9.25;;
28304;SDS011;15569;42.652;23.040;2022-11-18T00:54:31;33.67;;;12.13;;
28304;SDS011;15569;42.652;23.040;2022-11-18T00:56:57;13.68;;;7.63;;
28304;SDS011;15569;42.652;23.040;2022-11-18T00:59:22;14.57;;;7.53;;
28304;SDS011;15569;42.652;23.040;2022-11-18T01:01:48;18.00;;;10.02;;
28304;SDS011;15569;42.652;23.040;2022-11-18T01:04:13;21.35;;;10.55;;
28304;SDS011;15569;42.652;23.040;2022-11-18T01:06:39;15.63;;;9.18;;
28304;SDS011;15569;42.652;23.040;2022-11-18T01:09:04;16.30;;;8.98;;
28304;SDS011;15569;42.652;23.040;2022-11-18T01:11:30;15.23;;;7.50;;
28304;SDS011;15569;42.652;23.040;2022-11-18T01:14:14;15.27;;;6.82;;
28304;SDS011;15569;42.652;23.040;2022-11-18T01:16:39;15.07;;;7.13;;
28304;SDS011;15569;42.652;23.040;2022-11-18T01:19:05;22.77;;;7.60;;
28304;SDS011;15569;42.652;23.040;2022-11-18T01:21:30;21.58;;;9.38;;
28304;SDS011;15569;42.652;23.040;2022-11-18T01:23:55;29.55;;;10.95;;
28304;SDS011;15569;42.652;23.040;2022-11-18T01:26:21;20.15;;;9.25;;
28304;SDS011;15569;42.652;23.040;2022-11-18T01:28:46;24.10;;;11.98;;
28304;SDS011;15569;42.652;23.040;2022-11-18T01:31:16;20.70;;;10.90;;
28304;SDS011;15569;42.652;23.040;2022-11-18T01:33:43;21.52;;;10.02;;
28304;SDS011;15569;42.652;23.040;2022-11-18T01:36:27;22.75;;;12.40;;
28304;SDS011;15569;42.652;23.040;2022-11-18T01:38:53;27.92;;;10.23;;
28304;SDS011;15569;42.652;23.040;2022-11-18T01:41:20;22.00;;;10.13;;
28304;SDS011;15569;42.652;23.040;2022-11-18T01:43:54;34.08;;;11.02;;
28304;SDS011;15569;42.652;23.040;2022-11-18T01:46:29;28.05;;;10.60;;
28304;SDS011;15569;42.652;23.040;2022-11-18T01:49:05;31.58;;;9.77;;
28304;SDS011;15569;42.652;23.040;2022-11-18T01:51:34;16.60;;;7.05;;
28304;SDS011;15569;42.652;23.040;2022-11-18T01:54:09;11.90;;;5.28;;
28304;SDS011;15569;42.652;23.040;2022-11-18T01:56:42;15.57;;;5.25;;
28304;SDS011;15569;42.652;23.040;2022-11-18T01:59:11;14.10;;;3.50;;
28304;SDS011;15569;42.652;23.040;2022-11-18T02:01:39;7.78;;;3.92;;
28304;SDS011;15569;42.652;23.040;2022-11-18T02:04:06;14.68;;;5.28;;
28304;SDS011;15569;42.652;23.040;2022-11-18T02:06:33;12.95;;;5.07;;
28304;SDS011;15569;42.652;23.040;2022-11-18T02:08:59;7.53;;;4.75;;
28304;SDS011;15569;42.652;23.040;2022-11-18T02:11:25;7.03;;;4.30;;
28304;SDS011;15569;42.652;23.040;2022-11-18T02:14:09;11.13;;;4.30;;
28304;SDS011;15569;42.652;23.040;2022-11-18T02:19:51;12.95;;;5.53;;
28304;SDS011;15569;42.652;23.040;2022-11-18T02:30:28;11.75;;;6.25;;
28304;SDS011;15569;42.652;23.040;2022-11-18T02:35:41;12.00;;;4.60;;
28304;SDS011;15569;42.652;23.040;2022-11-18T02:38:14;13.00;;;5.38;;
28304;SDS011;15569;42.652;23.040;2022-11-18T02:41:09;7.22;;;3.72;;
28304;SDS011;15569;42.652;23.040;2022-11-18T02:43:37;11.70;;;4.82;;
28304;SDS011;15569;42.652;23.040;2022-11-18T02:46:08;9.50;;;6.63;;
28304;SDS011;15569;42.652;23.040;2022-11-18T02:48:38;10.35;;;5.43;;
28304;SDS011;15569;42.652;23.040;2022-11-18T02:51:08;7.35;;;4.95;;
28304;SDS011;15569;42.652;23.040;2022-11-18T02:53:36;6.75;;;4.30;;
28304;SDS011;15569;42.652;23.040;2022-11-18T02:56:04;7.10;;;4.30;;
28304;SDS011;15569;42.652;23.040;2022-11-18T02:58:31;7.90;;;3.92;;
28304;SDS011;15569;42.652;23.040;2022-11-18T03:00:57;11.27;;;4.97;;
28304;SDS011;15569;42.652;23.040;2022-11-18T03:03:26;7.05;;;3.58;;
28304;SDS011;15569;42.652;23.040;2022-11-18T03:08:41;9.38;;;4.35;;
28304;SDS011;15569;42.652;23.040;2022-11-18T03:11:16;13.68;;;7.40;;
28304;SDS011;15569;42.652;23.040;2022-11-18T03:19:37;16.30;;;7.07;;
28304;SDS011;15569;42.652;23.040;2022-11-18T03:30:26;33.88;;;4.53;;
28304;SDS011;15569;42.652;23.040;2022-11-18T03:32:59;31.83;;;4.65;;
28304;SDS011;15569;42.652;23.040;2022-11-18T03:35:29;7.85;;;3.08;;
28304;SDS011;15569;42.652;23.040;2022-11-18T03:38:20;10.90;;;3.55;;
28304;SDS011;15569;42.652;23.040;2022-11-18T03:40:51;19.33;;;3.05;;
28304;SDS011;15569;42.652;23.040;2022-11-18T03:43:21;4.20;;;3.30;;
28304;SDS011;15569;42.652;23.040;2022-11-18T03:45:53;10.52;;;5.80;;
28304;SDS011;15569;42.652;23.040;2022-11-18T03:48:25;18.13;;;8.57;;
28304;SDS011;15569;42.652;23.040;2022-11-18T03:50:59;10.15;;;5.75;;
28304;SDS011;15569;42.652;23.040;2022-11-18T03:53:27;13.75;;;4.88;;
28304;SDS011;15569;42.652;23.040;2022-11-18T03:55:58;11.85;;;3.47;;
28304;SDS011;15569;42.652;23.040;2022-11-18T03:58:34;8.65;;;3.80;;
28304;SDS011;15569;42.652;23.040;2022-11-18T04:01:12;16.25;;;3.63;;
28304;SDS011;15569;42.652;23.040;2022-11-18T04:03:45;5.85;;;3.70;;
28304;SDS011;15569;42.652;23.040;2022-11-18T04:06:24;10.95;;;4.00;;
28304;SDS011;15569;42.652;23.040;2022-11-18T04:08:58;13.80;;;3.92;;
28304;SDS011;15569;42.652;23.040;2022-11-18T04:11:29;10.37;;;4.10;;
28304;SDS011;15569;42.652;23.040;2022-11-18T04:14:17;10.52;;;3.25;;
28304;SDS011;15569;42.652;23.040;2022-11-18T04:16:47;5.32;;;2.83;;
28304;SDS011;15569;42.652;23.040;2022-11-18T04:19:15;13.77;;;2.92;;
28304;SDS011;15569;42.652;23.040;2022-11-18T04:21:40;3.25;;;2.40;;
28304;SDS011;15569;42.652;23.040;2022-11-18T04:24:06;3.22;;;2.22;;
28304;SDS011;15569;42.652;23.040;2022-11-18T04:26:31;6.03;;;2.75;;
28304;SDS011;15569;42.652;23.040;2022-11-18T04:28:57;6.78;;;2.50;;
28304;SDS011;15569;42.652;23.040;2022-11-18T04:31:22;5.22;;;3.05;;
28304;SDS011;15569;42.652;23.040;2022-11-18T04:33:48;4.93;;;3.25;;
28304;SDS011;15569;42.652;23.040;2022-11-18T04:36:13;5.88;;;3.22;;
28304;SDS011;15569;42.652;23.040;2022-11-18T04:38:38;8.68;;;4.07;;
28304;SDS011;15569;42.652;23.040;2022-11-18T04:41:04;12.80;;;3.40;;
28304;SDS011;15569;42.652;23.040;2022-11-18T04:43:29;11.95;;;3.10;;
28304;SDS011;15569;42.652;23.040;2022-11-18T04:45:54;10.02;;;2.85;;
28304;SDS011;15569;42.652;23.040;2022-11-18T04:48:20;8.18;;;3.65;;
28304;SDS011;15569;42.652;23.040;2022-11-18T04:50:45;7.32;;;3.55;;
28304;SDS011;15569;42.652;23.040;2022-11-18T04:53:11;5.32;;;2.58;;
28304;SDS011;15569;42.652;23.040;2022-11-18T04:55:36;11.43;;;3.65;;
28304;SDS011;15569;42.652;23.040;2022-11-18T04:58:02;7.43;;;2.85;;
28304;SDS011;15569;42.652;23.040;2022-11-18T05:00:27;20.20;;;3.40;;
28304;SDS011;15569;42.652;23.040;2022-11-18T05:02:53;22.38;;;2.85;;
28304;SDS011;15569;42.652;23.040;2022-11-18T05:05:18;15.20;;;3.05;;
28304;SDS011;15569;42.652;23.040;2022-11-18T05:07:44;12.60;;;2.92;;
28304;SDS011;15569;42.652;23.040;2022-11-18T05:10:09;12.98;;;3.00;;
28304;SDS011;15569;42.652;23.040;2022-11-18T05:12:34;10.85;;;3.22;;
28304;SDS011;15569;42.652;23.040;2022-11-18T05:15:16;23.67;;;4.25;;
28304;SDS011;15569;42.652;23.040;2022-11-18T05:20:12;30.90;;;4.25;;
28304;SDS011;15569;42.652;23.040;2022-11-18T05:22:37;24.80;;;7.53;;
28304;SDS011;15569;42.652;23.040;2022-11-18T05:25:03;23.85;;;8.18;;
28304;SDS011;15569;42.652;23.040;2022-11-18T05:27:29;20.92;;;4.85;;
28304;SDS011;15569;42.652;23.040;2022-11-18T05:29:55;18.30;;;5.72;;
28304;SDS011;15569;42.652;23.040;2022-11-18T05:32:20;15.32;;;5.07;;
28304;SDS011;15569;42.652;23.040;2022-11-18T05:34:46;21.77;;;4.90;;
28304;SDS011;15569;42.652;23.040;2022-11-18T05:37:11;21.10;;;6.28;;
28304;SDS011;15569;42.652;23.040;2022-11-18T05:39:36;29.33;;;6.07;;
28304;SDS011;15569;42.652;23.040;2022-11-18T05:42:02;27.02;;;6.05;;
28304;SDS011;15569;42.652;23.040;2022-11-18T05:44:46;35.83;;;6.43;;
28304;SDS011;15569;42.652;23.040;2022-11-18T05:47:12;27.60;;;3.78;;
28304;SDS011;15569;42.652;23.040;2022-11-18T05:49:37;28.20;;;4.72;;
28304;SDS011;15569;42.652;23.040;2022-11-18T05:52:03;6.70;;;3.15;;
28304;SDS011;15569;42.652;23.040;2022-11-18T05:54:28;18.77;;;3.33;;
28304;SDS011;15569;42.652;23.040;2022-11-18T05:56:54;18.17;;;3.33;;
28304;SDS011;15569;42.652;23.040;2022-11-18T05:59:19;6.07;;;2.92;;
28304;SDS011;15569;42.652;23.040;2022-11-18T06:04:33;16.80;;;3.55;;
28304;SDS011;15569;42.652;23.040;2022-11-18T06:07:07;8.20;;;2.95;;
28304;SDS011;15569;42.652;23.040;2022-11-18T06:09:48;22.23;;;5.15;;
28304;SDS011;15569;42.652;23.040;2022-11-18T06:12:19;24.65;;;3.75;;
28304;SDS011;15569;42.652;23.040;2022-11-18T06:14:51;11.73;;;3.13;;
28304;SDS011;15569;42.652;23.040;2022-11-18T06:17:32;14.32;;;3.08;;
28304;SDS011;15569;42.652;23.040;2022-11-18T06:20:16;4.97;;;2.58;;
28304;SDS011;15569;42.652;23.040;2022-11-18T06:22:43;19.45;;;4.07;;
28304;SDS011;15569;42.652;23.040;2022-11-18T06:25:08;8.00;;;4.13;;
28304;SDS011;15569;42.652;23.040;2022-11-18T06:27:34;11.48;;;4.65;;
28304;SDS011;15569;42.652;23.040;2022-11-18T06:29:59;18.33;;;5.78;;
28304;SDS011;15569;42.652;23.040;2022-11-18T06:32:25;19.17;;;5.20;;
28304;SDS011;15569;42.652;23.040;2022-11-18T06:34:50;29.88;;;8.35;;
28304;SDS011;15569;42.652;23.040;2022-11-18T06:37:17;13.35;;;6.15;;
28304;SDS011;15569;42.652;23.040;2022-11-18T06:39:46;18.00;;;6.60;;
28304;SDS011;15569;42.652;23.040;2022-11-18T06:42:11;18.60;;;6.63;;
28304;SDS011;15569;42.652;23.040;2022-11-18T06:44:57;7.95;;;4.50;;
28304;SDS011;15569;42.652;23.040;2022-11-18T06:47:23;12.05;;;3.80;;
28304;SDS011;15569;42.652;23.040;2022-11-18T06:49:48;7.22;;;3.08;;
28304;SDS011;15569;42.652;23.040;2022-11-18T06:52:13;4.22;;;2.90;;
28304;SDS011;15569;42.652;23.040;2022-11-18T06:54:39;5.20;;;2.63;;
28304;SDS011;15569;42.652;23.040;2022-11-18T06:57:04;9.18;;;3.33;;
28304;SDS011;15569;42.652;23.040;2022-11-18T06:59:29;5.80;;;2.90;;
28304;SDS011;15569;42.652;23.040;2022-11-18T07:01:55;5.18;;;3.42;;
28304;SDS011;15569;42.652;23.040;2022-11-18T07:04:21;22.85;;;5.35;;
28304;SDS011;15569;42.652;23.040;2022-11-18T07:06:46;12.05;;;4.07;;
28304;SDS011;15569;42.652;23.040;2022-11-18T07:09:11;10.73;;;3.42;;
28304;SDS011;15569;42.652;23.040;2022-11-18T07:11:37;4.68;;;3.08;;
28304;SDS011;15569;42.652;23.040;2022-11-18T07:14:05;5.45;;;3.00;;
28304;SDS011;15569;42.652;23.040;2022-11-18T07:16:32;7.53;;;3.10;;
28304;SDS011;15569;42.652;23.040;2022-11-18T07:19:00;10.60;;;3.58;;
28304;SDS011;15569;42.652;23.040;2022-11-18T07:21:26;7.82;;;2.80;;
28304;SDS011;15569;42.652;23.040;2022-11-18T07:23:53;7.53;;;3.92;;
28304;SDS011;15569;42.652;23.040;2022-11-18T07:26:19;6.78;;;3.40;;
28304;SDS011;15569;42.652;23.040;2022-11-18T07:28:45;11.32;;;3.50;;
28304;SDS011;15569;42.652;23.040;2022-11-18T07:31:17;7.78;;;3.28;;
28304;SDS011;15569;42.652;23.040;2022-11-18T07:33:44;6.50;;;3.50;;
28304;SDS011;15569;42.652;23.040;2022-11-18T07:36:11;9.65;;;3.47;;
28304;SDS011;15569;42.652;23.040;2022-11-18T07:38:38;4.85;;;3.45;;
28304;SDS011;15569;42.652;23.040;2022-11-18T07:41:05;13.68;;;4.28;;
28304;SDS011;15569;42.652;23.040;2022-11-18T07:43:33;11.13;;;4.65;;
28304;SDS011;15569;42.652;23.040;2022-11-18T07:46:16;13.20;;;4.85;;
28304;SDS011;15569;42.652;23.040;2022-11-18T07:48:44;18.65;;;4.95;;
28304;SDS011;15569;42.652;23.040;2022-11-18T07:51:11;15.93;;;5.50;;
28304;SDS011;15569;42.652;23.040;2022-11-18T07:53:38;24.15;;;7.10;;
28304;SDS011;15569;42.652;23.040;2022-11-18T07:56:03;26.40;;;9.13;;
28304;SDS011;15569;42.652;23.040;2022-11-18T07:58:30;39.58;;;15.75;;
28304;SDS011;15569;42.652;23.040;2022-11-18T08:00:56;21.35;;;9.38;;
28304;SDS011;15569;42.652;23.040;2022-11-18T08:03:28;43.25;;;19.05;;
28304;SDS011;15569;42.652;23.040;2022-11-18T08:06:00;25.05;;;9.18;;
28304;SDS011;15569;42.652;23.040;2022-11-18T08:08:26;15.25;;;9.80;;
28304;SDS011;15569;42.652;23.040;2022-11-18T08:10:55;17.25;;;10.82;;
28304;SDS011;15569;42.652;23.040;2022-11-18T08:13:22;27.15;;;11.20;;
28304;SDS011;15569;42.652;23.040;2022-11-18T08:15:47;23.45;;;14.45;;
28304;SDS011;15569;42.652;23.040;2022-11-18T08:18:13;40.75;;;29.80;;
28304;SDS011;15569;42.652;23.040;2022-11-18T08:20:38;34.63;;;20.17;;
28304;SDS011;15569;42.652;23.040;2022-11-18T08:23:03;60.80;;;33.17;;
28304;SDS011;15569;42.652;23.040;2022-11-18T08:25:29;38.22;;;28.33;;
28304;SDS011;15569;42.652;23.040;2022-11-18T08:27:54;33.55;;;26.52;;
28304;SDS011;15569;42.652;23.040;2022-11-18T08:30:20;30.52;;;22.15;;
28304;SDS011;15569;42.652;23.040;2022-11-18T08:32:45;29.00;;;21.90;;
28304;SDS011;15569;42.652;23.040;2022-11-18T08:35:10;30.42;;;22.70;;
28304;SDS011;15569;42.652;23.040;2022-11-18T08:37:36;35.60;;;20.67;;
28304;SDS011;15569;42.652;23.040;2022-11-18T08:40:01;29.02;;;22.15;;
28304;SDS011;15569;42.652;23.040;2022-11-18T08:42:27;27.20;;;14.85;;
28304;SDS011;15569;42.652;23.040;2022-11-18T08:44:52;30.52;;;15.00;;
28304;SDS011;15569;42.652;23.040;2022-11-18T08:47:18;31.58;;;17.95;;
28304;SDS011;15569;42.652;23.040;2022-11-18T08:49:43;26.45;;;17.45;;
28304;SDS011;15569;42.652;23.040;2022-11-18T08:52:09;36.95;;;23.95;;
28304;SDS011;15569;42.652;23.040;2022-11-18T08:54:34;31.13;;;25.83;;
28304;SDS011;15569;42.652;23.040;2022-11-18T08:56:59;33.25;;;22.48;;
28304;SDS011;15569;42.652;23.040;2022-11-18T08:59:25;24.38;;;12.40;;
28304;SDS011;15569;42.652;23.040;2022-11-18T09:01:51;22.63;;;15.55;;
28304;SDS011;15569;42.652;23.040;2022-11-18T09:04:16;33.67;;;20.02;;
28304;SDS011;15569;42.652;23.040;2022-11-18T09:06:41;26.45;;;13.15;;
28304;SDS011;15569;42.652;23.040;2022-11-18T09:09:07;19.15;;;13.05;;
28304;SDS011;15569;42.652;23.040;2022-11-18T09:11:33;27.52;;;10.93;;
28304;SDS011;15569;42.652;23.040;2022-11-18T09:13:59;14.07;;;9.27;;
28304;SDS011;15569;42.652;23.040;2022-11-18T09:16:25;46.15;;;23.55;;
28304;SDS011;15569;42.652;23.040;2022-11-18T09:18:53;24.75;;;15.40;;
28304;SDS011;15569;42.652;23.040;2022-11-18T09:21:19;28.40;;;16.02;;
28304;SDS011;15569;42.652;23.040;2022-11-18T09:23:45;16.33;;;8.95;;
28304;SDS011;15569;42.652;23.040;2022-11-18T09:26:11;61.08;;;28.63;;
28304;SDS011;15569;42.652;23.040;2022-11-18T09:28:39;12.70;;;10.40;;
28304;SDS011;15569;42.652;23.040;2022-11-18T09:31:08;24.00;;;11.00;;
28304;SDS011;15569;42.652;23.040;2022-11-18T09:33:36;12.38;;;6.15;;
28304;SDS011;15569;42.652;23.040;2022-11-18T09:36:02;14.73;;;6.00;;
28304;SDS011;15569;42.652;23.040;2022-11-18T09:38:29;9.10;;;6.65;;
28304;SDS011;15569;42.652;23.040;2022-11-18T09:41:29;8.77;;;6.35;;
28304;SDS011;15569;42.652;23.040;2022-11-18T09:46:25;18.40;;;8.20;;
28304;SDS011;15569;42.652;23.040;2022-11-18T09:49:07;12.73;;;6.50;;
28304;SDS011;15569;42.652;23.040;2022-11-18T09:51:44;19.65;;;8.20;;
28304;SDS011;15569;42.652;23.040;2022-11-18T09:54:24;8.57;;;4.15;;
28304;SDS011;15569;42.652;23.040;2022-11-18T09:56:54;10.57;;;6.03;;
28304;SDS011;15569;42.652;23.040;2022-11-18T09:59:20;17.90;;;9.68;;
28304;SDS011;15569;42.652;23.040;2022-11-18T10:01:49;10.48;;;4.90;;
28304;SDS011;15569;42.652;23.040;2022-11-18T10:04:18;6.70;;;4.13;;
28304;SDS011;15569;42.652;23.040;2022-11-18T10:06:45;4.82;;;2.58;;
28304;SDS011;15569;42.652;23.040;2022-11-18T10:25:38;13.57;;;5.80;;
28304;SDS011;15569;42.652;23.040;2022-11-18T10:28:37;10.07;;;5.45;;
28304;SDS011;15569;42.652;23.040;2022-11-18T10:31:09;6.68;;;2.80;;
28304;SDS011;15569;42.652;23.040;2022-11-18T10:33:36;4.30;;;2.53;;
28304;SDS011;15569;42.652;23.040;2022-11-18T10:36:07;4.82;;;2.35;;
28304;SDS011;15569;42.652;23.040;2022-11-18T10:38:36;3.55;;;1.90;;
28304;SDS011;15569;42.652;23.040;2022-11-18T10:41:03;9.35;;;1.90;;
28304;SDS011;15569;42.652;23.040;2022-11-18T10:48:42;7.38;;;2.78;;
28304;SDS011;15569;42.652;23.040;2022-11-18T10:51:21;6.30;;;2.35;;
28304;SDS011;15569;42.652;23.040;2022-11-18T10:53:48;2.63;;;1.92;;
28304;SDS011;15569;42.652;23.040;2022-11-18T10:56:13;4.70;;;2.63;;
28304;SDS011;15569;42.652;23.040;2022-11-18T10:58:44;3.70;;;2.72;;
28304;SDS011;15569;42.652;23.040;2022-11-18T11:03:54;4.68;;;2.30;;
28304;SDS011;15569;42.652;23.040;2022-11-18T11:08:59;3.55;;;2.10;;
28304;SDS011;15569;42.652;23.040;2022-11-18T11:11:39;3.20;;;1.70;;
28304;SDS011;15569;42.652;23.040;2022-11-18T11:14:30;5.20;;;2.78;;
28304;SDS011;15569;42.652;23.040;2022-11-18T11:17:28;5.38;;;2.72;;
28304;SDS011;15569;42.652;23.040;2022-11-18T11:20:21;5.13;;;3.15;;
28304;SDS011;15569;42.652;23.040;2022-11-18T11:22:48;6.10;;;3.13;;
28304;SDS011;15569;42.652;23.040;2022-11-18T11:25:14;3.85;;;3.22;;
28304;SDS011;15569;42.652;23.040;2022-11-18T11:27:50;2.78;;;2.22;;
28304;SDS011;15569;42.652;23.040;2022-11-18T11:30:21;4.47;;;3.10;;
28304;SDS011;15569;42.652;23.040;2022-11-18T11:49:22;4.43;;;2.78;;
28304;SDS011;15569;42.652;23.040;2022-11-18T11:51:54;6.05;;;2.45;;
28304;SDS011;15569;42.652;23.040;2022-11-18T11:56:55;5.28;;;2.80;;
28304;SDS011;15569;42.652;23.040;2022-11-18T11:59:33;6.13;;;2.45;;
28304;SDS011;15569;42.652;23.040;2022-11-18T12:07:19;43.35;;;17.27;;
28304;SDS011;15569;42.652;23.040;2022-11-18T12:21:03;40.10;;;17.63;;
28304;SDS011;15569;42.652;23.040;2022-11-18T12:23:29;36.88;;;16.85;;
28304;SDS011;15569;42.652;23.040;2022-11-18T12:28:25;20.00;;;10.52;;
28304;SDS011;15569;42.652;23.040;2022-11-18T12:31:24;6.95;;;4.55;;
28304;SDS011;15569;42.652;23.040;2022-11-18T12:33:45;9.35;;;6.30;;
28304;SDS011;15569;42.652;23.040;2022-11-18T12:36:34;11.00;;;3.90;;
28304;SDS011;15569;42.652;23.040;2022-11-18T12:44:29;11.65;;;4.10;;
28304;SDS011;15569;42.652;23.040;2022-11-18T12:47:04;20.20;;;11.85;;
28304;SDS011;15569;42.652;23.040;2022-11-18T12:52:02;23.25;;;9.40;;
28304;SDS011;15569;42.652;23.040;2022-11-18T12:54:30;15.63;;;7.10;;
28304;SDS011;15569;42.652;23.040;2022-11-18T12:57:00;6.15;;;3.45;;
28304;SDS011;15569;42.652;23.040;2022-11-18T12:59:35;7.15;;;4.00;;
28304;SDS011;15569;42.652;23.040;2022-11-18T13:02:04;10.07;;;5.55;;
28304;SDS011;15569;42.652;23.040;2022-11-18T13:07:30;5.57;;;2.70;;
28304;SDS011;15569;42.652;23.040;2022-11-18T13:10:21;5.45;;;3.17;;
28304;SDS011;15569;42.652;23.040;2022-11-18T13:12:49;6.78;;;2.85;;
28304;SDS011;15569;42.652;23.040;2022-11-18T13:15:16;3.88;;;2.38;;
28304;SDS011;15569;42.652;23.040;2022-11-18T13:18:11;8.85;;;3.70;;
28304;SDS011;15569;42.652;23.040;2022-11-18T13:20:37;34.63;;;15.15;;
28304;SDS011;15569;42.652;23.040;2022-11-18T13:26:16;35.03;;;14.65;;
28304;SDS011;15569;42.652;23.040;2022-11-18T13:32:23;14.45;;;6.68;;
28304;SDS011;15569;42.652;23.040;2022-11-18T13:35:12;6.70;;;3.75;;
28304;SDS011;15569;42.652;23.040;2022-11-18T13:37:47;7.40;;;4.40;;
28304;SDS011;15569;42.652;23.040;2022-11-18T13:40:28;17.95;;;9.38;;
28304;SDS011;15569;42.652;23.040;2022-11-18T13:43:27;44.30;;;16.65;;
28304;SDS011;15569;42.652;23.040;2022-11-18T13:45:52;9.95;;;4.32;;
28304;SDS011;15569;42.652;23.040;2022-11-18T13:48:18;44.22;;;20.55;;
28304;SDS011;15569;42.652;23.040;2022-11-18T13:50:48;52.67;;;22.38;;
28304;SDS011;15569;42.652;23.040;2022-11-18T13:55:57;33.50;;;17.13;;
28304;SDS011;15569;42.652;23.040;2022-11-18T14:01:02;18.92;;;7.40;;
28304;SDS011;15569;42.652;23.040;2022-11-18T14:03:34;10.05;;;6.72;;
28304;SDS011;15569;42.652;23.040;2022-11-18T14:06:03;37.28;;;15.98;;
28304;SDS011;15569;42.652;23.040;2022-11-18T14:10:55;15.82;;;6.45;;
28304;SDS011;15569;42.652;23.040;2022-11-18T14:15:46;8.73;;;4.90;;
28304;SDS011;15569;42.652;23.040;2022-11-18T14:18:19;5.28;;;3.08;;
28304;SDS011;15569;42.652;23.040;2022-11-18T14:20:56;5.30;;;3.40;;
28304;SDS011;15569;42.652;23.040;2022-11-18T14:23:26;13.25;;;6.22;;
28304;SDS011;15569;42.652;23.040;2022-11-18T14:25:56;11.15;;;5.18;;
28304;SDS011;15569;42.652;23.040;2022-11-18T14:31:00;11.45;;;6.32;;
28304;SDS011;15569;42.652;23.040;2022-11-18T14:33:41;29.17;;;13.20;;
28304;SDS011;15569;42.652;23.040;2022-11-18T14:36:27;28.00;;;11.60;;
28304;SDS011;15569;42.652;23.040;2022-11-18T14:38:53;18.45;;;9.43;;
28304;SDS011;15569;42.652;23.040;2022-11-18T14:41:19;9.60;;;5.20;;
28304;SDS011;15569;42.652;23.040;2022-11-18T14:44:06;10.55;;;4.15;;
28304;SDS011;15569;42.652;23.040;2022-11-18T14:46:32;11.95;;;4.88;;
28304;SDS011;15569;42.652;23.040;2022-11-18T14:49:03;9.02;;;5.50;;
28304;SDS011;15569;42.652;23.040;2022-11-18T14:51:30;3.67;;;2.88;;
28304;SDS011;15569;42.652;23.040;2022-11-18T14:53:55;9.98;;;3.13;;
28304;SDS011;15569;42.652;23.040;2022-11-18T14:58:54;7.10;;;4.45;;
28304;SDS011;15569;42.652;23.040;2022-11-18T15:01:19;7.32;;;4.10;;
28304;SDS011;15569;42.652;23.040;2022-11-18T15:03:46;7.60;;;5.15;;
28304;SDS011;15569;42.652;23.040;2022-11-18T15:06:15;11.02;;;3.95;;
28304;SDS011;15569;42.652;23.040;2022-11-18T15:08:43;13.02;;;5.40;;
28304;SDS011;15569;42.652;23.040;2022-11-18T15:11:09;9.90;;;4.35;;
28304;SDS011;15569;42.652;23.040;2022-11-18T15:13:35;12.40;;;6.55;;
28304;SDS011;15569;42.652;23.040;2022-11-18T15:16:05;8.45;;;5.68;;
28304;SDS011;15569;42.652;23.040;2022-11-18T15:18:58;14.55;;;6.78;;
28304;SDS011;15569;42.652;23.040;2022-11-18T15:21:26;17.67;;;10.40;;
28304;SDS011;15569;42.652;23.040;2022-11-18T15:23:52;11.85;;;7.03;;
28304;SDS011;15569;42.652;23.040;2022-11-18T15:26:28;26.58;;;20.02;;
28304;SDS011;15569;42.652;23.040;2022-11-18T15:28:59;20.60;;;11.23;;
28304;SDS011;15569;42.652;23.040;2022-11-18T15:31:25;14.85;;;12.68;;
28304;SDS011;15569;42.652;23.040;2022-11-18T15:33:50;36.78;;;18.77;;
28304;SDS011;15569;42.652;23.040;2022-11-18T15:36:17;32.65;;;20.60;;
28304;SDS011;15569;42.652;23.040;2022-11-18T15:38:48;39.55;;;27.30;;
28304;SDS011;15569;42.652;23.040;2022-11-18T15:41:15;41.05;;;29.67;;
28304;SDS011;15569;42.652;23.040;2022-11-18T15:43:52;22.50;;;20.05;;
28304;SDS011;15569;42.652;23.040;2022-11-18T15:46:19;101.63;;;46.25;;
28304;SDS011;15569;42.652;23.040;2022-11-18T15:48:46;72.28;;;39.75;;
28304;SDS011;15569;42.652;23.040;2022-11-18T15:51:12;46.47;;;29.70;;
28304;SDS011;15569;42.652;23.040;2022-11-18T15:53:38;24.15;;;17.40;;
28304;SDS011;15569;42.652;23.040;2022-11-18T15:58:51;17.90;;;9.65;;
28304;SDS011;15569;42.652;23.040;2022-11-18T16:01:19;33.28;;;14.90;;
28304;SDS011;15569;42.652;23.040;2022-11-18T16:03:45;24.42;;;14.07;;
28304;SDS011;15569;42.652;23.040;2022-11-18T16:06:10;22.02;;;9.52;;
28304;SDS011;15569;42.652;23.040;2022-11-18T16:08:35;11.95;;;7.38;;
28304;SDS011;15569;42.652;23.040;2022-11-18T16:11:01;29.58;;;16.30;;
28304;SDS011;15569;42.652;23.040;2022-11-18T16:13:45;11.63;;;5.75;;
28304;SDS011;15569;42.652;23.040;2022-11-18T16:16:20;18.15;;;8.70;;
28304;SDS011;15569;42.652;23.040;2022-11-18T16:18:46;13.60;;;5.88;;
28304;SDS011;15569;42.652;23.040;2022-11-18T16:21:12;34.17;;;13.40;;
28304;SDS011;15569;42.652;23.040;2022-11-18T16:23:38;10.05;;;4.30;;
28304;SDS011;15569;42.652;23.040;2022-11-18T16:26:03;7.22;;;3.75;;
28304;SDS011;15569;42.652;23.040;2022-11-18T16:28:29;14.20;;;5.97;;
28304;SDS011;15569;42.652;23.040;2022-11-18T16:30:54;24.17;;;11.23;;
28304;SDS011;15569;42.652;23.040;2022-11-18T16:33:38;15.52;;;7.28;;
28304;SDS011;15569;42.652;23.040;2022-11-18T16:36:04;14.82;;;6.47;;
28304;SDS011;15569;42.652;23.040;2022-11-18T16:38:29;18.88;;;8.88;;
28304;SDS011;15569;42.652;23.040;2022-11-18T16:40:58;18.40;;;8.82;;
28304;SDS011;15569;42.652;23.040;2022-11-18T16:43:24;26.08;;;17.48;;
28304;SDS011;15569;42.652;23.040;2022-11-18T16:45:50;21.67;;;10.20;;
28304;SDS011;15569;42.652;23.040;2022-11-18T16:48:16;21.20;;;11.38;;
28304;SDS011;15569;42.652;23.040;2022-11-18T16:50:42;15.05;;;9.88;;
28304;SDS011;15569;42.652;23.040;2022-11-18T16:53:08;19.33;;;9.48;;